Time;durP1;ratioP1;P1;durP2;ratioP2;P2;SDS_P1;SDS_P2;PMS_P1;PMS_P2;Temp;Humidity;BMP_temperature;BMP_pressure;BME280_temperature;BME280_humidity;BME280_pressure;Samples;Min_cycle;Max_cycle;Signal;HPM_P1;HPM_P2
2022/07/03 00:01:36;;;;;;;3.47;2.30;;;;;;;;;;5094137;28;21007;-66
2022/07/03 00:04:04;;;;;;;3.20;2.63;;;;;;;;;;5094129;28;20455;-66
2022/07/03 00:06:33;;;;;;;4.03;2.30;;;;;;;;;;5094150;28;20442;-65
2022/07/03 00:09:02;;;;;;;3.13;2.83;;;;;;;;;;5094591;28;20439;-65
2022/07/03 00:11:29;;;;;;;2.67;2.47;;;;;;;;;;5094082;28;20541;-65
2022/07/03 00:13:56;;;;;;;5.20;2.50;;;;;;;;;;5093908;28;20438;-65
2022/07/03 00:16:24;;;;;;;2.83;2.53;;;;;;;;;;5094629;28;20946;-66
2022/07/03 00:18:51;;;;;;;4.57;2.80;;;;;;;;;;5094459;28;20556;-66
2022/07/03 00:21:22;;;;;;;4.47;2.63;;;;;;;;;;5094133;28;20564;-65
2022/07/03 00:23:53;;;;;;;3.33;2.43;;;;;;;;;;5094381;28;20430;-65
2022/07/03 00:26:22;;;;;;;2.70;2.50;;;;;;;;;;5094563;28;20767;-65
2022/07/03 00:28:51;;;;;;;2.80;2.30;;;;;;;;;;5093974;28;20473;-65
2022/07/03 00:31:18;;;;;;;2.30;2.20;;;;;;;;;;5093728;28;20954;-64
2022/07/03 00:33:46;;;;;;;4.93;2.60;;;;;;;;;;5093862;28;20538;-64
2022/07/03 00:36:14;;;;;;;3.13;2.20;;;;;;;;;;5093969;28;20488;-64
2022/07/03 00:38:44;;;;;;;2.80;2.50;;;;;;;;;;5094009;28;20450;-64
2022/07/03 00:41:25;;;;;;;2.70;2.50;;;;;;;;;;5093578;28;20442;-64
2022/07/03 00:43:53;;;;;;;2.83;2.50;;;;;;;;;;5093998;28;20543;-64
2022/07/03 00:46:23;;;;;;;3.53;3.10;;;;;;;;;;5093465;28;20447;-64
2022/07/03 00:48:51;;;;;;;2.90;2.70;;;;;;;;;;5093558;28;20946;-64
2022/07/03 00:51:20;;;;;;;3.60;2.83;;;;;;;;;;5093869;28;20993;-65
2022/07/03 00:53:47;;;;;;;4.93;2.60;;;;;;;;;;5093373;28;20489;-65
2022/07/03 00:56:15;;;;;;;5.33;3.00;;;;;;;;;;5093343;28;20987;-64
2022/07/03 00:58:42;;;;;;;4.80;3.13;;;;;;;;;;5093328;28;20961;-64
2022/07/03 01:01:11;;;;;;;3.30;2.80;;;;;;;;;;5093626;28;20805;-64
2022/07/03 01:03:41;;;;;;;3.40;2.73;;;;;;;;;;5093924;28;20521;-64
2022/07/03 01:06:14;;;;;;;4.77;3.00;;;;;;;;;;5093286;28;20525;-64
2022/07/03 01:08:44;;;;;;;6.03;2.90;;;;;;;;;;5093295;28;20439;-64
2022/07/03 01:11:16;;;;;;;3.23;2.90;;;;;;;;;;5093511;28;20502;-64
2022/07/03 01:13:46;;;;;;;3.50;3.20;;;;;;;;;;5093362;28;20521;-64
2022/07/03 01:16:18;;;;;;;5.30;3.27;;;;;;;;;;5093736;28;20428;-65
2022/07/03 01:18:47;;;;;;;4.53;3.60;;;;;;;;;;5093131;28;20468;-65
2022/07/03 01:21:17;;;;;;;7.77;3.10;;;;;;;;;;5093585;28;20787;-65
2022/07/03 01:23:54;;;;;;;7.90;3.83;;;;;;;;;;5093135;28;20642;-65
2022/07/03 01:26:25;;;;;;;4.47;3.60;;;;;;;;;;5093568;28;20517;-65
2022/07/03 01:28:52;;;;;;;4.73;4.03;;;;;;;;;;5093034;28;20623;-65
2022/07/03 01:31:20;;;;;;;6.10;4.13;;;;;;;;;;5093889;28;20441;-65
2022/07/03 01:33:50;;;;;;;3.57;3.27;;;;;;;;;;5093610;28;20478;-65
2022/07/03 01:36:17;;;;;;;4.40;4.00;;;;;;;;;;5093364;28;20519;-65
2022/07/03 01:38:45;;;;;;;8.63;3.60;;;;;;;;;;5093774;28;20460;-65
2022/07/03 01:41:12;;;;;;;4.47;3.30;;;;;;;;;;5093028;28;20449;-65
2022/07/03 01:43:45;;;;;;;4.23;3.87;;;;;;;;;;5093110;28;20511;-65
2022/07/03 01:46:13;;;;;;;3.63;3.30;;;;;;;;;;5093304;28;20500;-64
2022/07/03 01:48:43;;;;;;;6.30;3.67;;;;;;;;;;5093081;28;20810;-64
2022/07/03 01:51:11;;;;;;;5.37;3.73;;;;;;;;;;5094042;28;20436;-65
2022/07/03 01:53:41;;;;;;;4.57;3.80;;;;;;;;;;5093137;28;20515;-64
2022/07/03 01:56:09;;;;;;;4.23;3.43;;;;;;;;;;5093418;28;20469;-64
2022/07/03 01:58:36;;;;;;;4.73;3.13;;;;;;;;;;5093069;28;20455;-65
2022/07/03 02:01:09;;;;;;;9.13;4.00;;;;;;;;;;5093163;28;20440;-65
2022/07/03 02:03:40;;;;;;;3.60;3.27;;;;;;;;;;5093398;28;20559;-65
2022/07/03 02:06:11;;;;;;;7.50;3.37;;;;;;;;;;5093131;28;20901;-65
2022/07/03 02:08:45;;;;;;;5.00;3.53;;;;;;;;;;5093832;28;20545;-64
2022/07/03 02:11:14;;;;;;;4.00;3.57;;;;;;;;;;5097090;28;20465;-64
2022/07/03 02:13:52;;;;;;;4.43;3.27;;;;;;;;;;5097183;28;20472;-65
2022/07/03 02:16:22;;;;;;;3.93;3.63;;;;;;;;;;5096353;28;20969;-64
2022/07/03 02:18:55;;;;;;;3.83;3.40;;;;;;;;;;5096897;28;20492;-64
2022/07/03 02:21:22;;;;;;;3.87;3.57;;;;;;;;;;5097067;28;20898;-65
2022/07/03 02:23:54;;;;;;;6.63;4.20;;;;;;;;;;5096299;28;20566;-65
2022/07/03 02:26:23;;;;;;;5.00;4.03;;;;;;;;;;5096660;28;20422;-64
2022/07/03 02:28:57;;;;;;;4.47;4.07;;;;;;;;;;5096682;28;20439;-65
2022/07/03 02:31:28;;;;;;;4.20;3.90;;;;;;;;;;5096013;28;21004;-64
2022/07/03 02:33:58;;;;;;;3.73;3.43;;;;;;;;;;5095986;28;20466;-64
2022/07/03 02:36:25;;;;;;;5.50;3.57;;;;;;;;;;5095940;28;20440;-64
2022/07/03 02:38:55;;;;;;;4.07;3.67;;;;;;;;;;5095874;28;20442;-65
2022/07/03 02:41:25;;;;;;;4.90;3.90;;;;;;;;;;5095766;28;20454;-65
2022/07/03 02:43:53;;;;;;;3.97;3.67;;;;;;;;;;5096073;28;20563;-64
2022/07/03 02:49:20;;;;;;;4.50;3.70;;;;;;;;;;5074930;28;20470;-64
2022/07/03 02:51:49;;;;;;;6.43;4.47;;;;;;;;;;5096487;28;20434;-65
2022/07/03 02:54:17;;;;;;;5.40;3.73;;;;;;;;;;5095940;28;20531;-64
2022/07/03 02:56:49;;;;;;;6.33;3.60;;;;;;;;;;5095524;28;20523;-64
2022/07/03 02:59:24;;;;;;;4.13;3.70;;;;;;;;;;5095876;28;20519;-64
2022/07/03 03:01:56;;;;;;;4.00;3.70;;;;;;;;;;5095438;28;20435;-64
2022/07/03 03:04:29;;;;;;;6.47;4.20;;;;;;;;;;5095486;28;20535;-64
2022/07/03 03:06:57;;;;;;;6.80;5.17;;;;;;;;;;5095391;28;20906;-64
2022/07/03 03:09:28;;;;;;;4.23;3.90;;;;;;;;;;5095425;28;20484;-64
2022/07/03 03:11:57;;;;;;;5.70;3.90;;;;;;;;;;5095186;28;20421;-64
2022/07/03 03:14:26;;;;;;;6.20;4.07;;;;;;;;;;5095876;28;20470;-64
2022/07/03 03:16:54;;;;;;;6.40;4.23;;;;;;;;;;5095099;28;20532;-64
2022/07/03 03:19:22;;;;;;;5.07;4.10;;;;;;;;;;5094769;28;20494;-64
2022/07/03 03:21:58;;;;;;;6.40;3.70;;;;;;;;;;5094972;28;20949;-64
2022/07/03 03:24:27;;;;;;;5.03;4.47;;;;;;;;;;5095188;28;20865;-64
2022/07/03 03:26:54;;;;;;;5.97;4.33;;;;;;;;;;5095271;28;20429;-65
2022/07/03 03:29:22;;;;;;;4.27;3.87;;;;;;;;;;5094948;28;20447;-65
2022/07/03 03:31:49;;;;;;;4.13;3.70;;;;;;;;;;5095228;28;20436;-65
2022/07/03 03:34:17;;;;;;;4.63;4.27;;;;;;;;;;5095182;28;20799;-65
2022/07/03 03:36:44;;;;;;;5.40;4.40;;;;;;;;;;5094949;28;20448;-65
2022/07/03 03:39:13;;;;;;;10.17;4.67;;;;;;;;;;5095065;28;20526;-65
2022/07/03 03:41:40;;;;;;;5.43;3.77;;;;;;;;;;5094615;28;20444;-65
2022/07/03 03:44:08;;;;;;;8.33;4.80;;;;;;;;;;5095204;28;20478;-65
2022/07/03 03:46:35;;;;;;;7.70;4.03;;;;;;;;;;5095120;28;20534;-65
2022/07/03 03:49:03;;;;;;;5.00;3.50;;;;;;;;;;5094841;28;20994;-65
2022/07/03 03:51:30;;;;;;;6.83;4.13;;;;;;;;;;5094726;28;20441;-65
2022/07/03 03:53:57;;;;;;;4.40;3.93;;;;;;;;;;5095100;28;20441;-65
2022/07/03 03:56:26;;;;;;;10.07;4.00;;;;;;;;;;5094663;28;20527;-65
2022/07/03 03:58:53;;;;;;;5.03;4.33;;;;;;;;;;5094903;28;20527;-65
2022/07/03 04:01:20;;;;;;;6.87;4.43;;;;;;;;;;5094880;28;20451;-65
2022/07/03 04:03:48;;;;;;;5.43;4.27;;;;;;;;;;5094968;28;20559;-65
2022/07/03 04:06:15;;;;;;;6.23;4.60;;;;;;;;;;5094698;28;20522;-65
2022/07/03 04:08:42;;;;;;;4.20;3.80;;;;;;;;;;5094574;28;20955;-65
2022/07/03 04:11:09;;;;;;;5.37;4.77;;;;;;;;;;5094357;28;20529;-65
2022/07/03 04:13:38;;;;;;;6.67;4.47;;;;;;;;;;5093563;28;20533;-65
2022/07/03 04:16:06;;;;;;;4.23;3.90;;;;;;;;;;5093302;28;20488;-65
2022/07/03 04:18:33;;;;;;;8.70;4.80;;;;;;;;;;5093808;28;20488;-65
2022/07/03 04:21:01;;;;;;;5.43;4.90;;;;;;;;;;5093513;28;20473;-65
2022/07/03 04:23:28;;;;;;;5.27;4.03;;;;;;;;;;5093578;28;20512;-65
2022/07/03 04:25:55;;;;;;;4.87;4.30;;;;;;;;;;5093647;28;20474;-66
2022/07/03 04:28:22;;;;;;;5.43;4.93;;;;;;;;;;5093529;28;20524;-65
2022/07/03 04:30:51;;;;;;;5.80;5.13;;;;;;;;;;5093020;28;20446;-66
2022/07/03 04:33:18;;;;;;;7.10;4.93;;;;;;;;;;5093436;28;20954;-65
2022/07/03 04:35:45;;;;;;;9.43;5.40;;;;;;;;;;5093757;28;20472;-65
2022/07/03 04:38:13;;;;;;;5.73;5.20;;;;;;;;;;5093533;28;20528;-65
2022/07/03 04:40:40;;;;;;;5.13;4.73;;;;;;;;;;5093416;28;20866;-65
2022/07/03 04:43:07;;;;;;;9.43;6.37;;;;;;;;;;5093089;28;20569;-65
2022/07/03 04:45:35;;;;;;;7.90;5.80;;;;;;;;;;5093327;28;20523;-65
2022/07/03 04:48:03;;;;;;;9.70;5.80;;;;;;;;;;5092875;28;20516;-65
2022/07/03 04:50:31;;;;;;;8.13;6.07;;;;;;;;;;5093567;28;20917;-65
2022/07/03 04:52:59;;;;;;;6.30;5.57;;;;;;;;;;5092864;28;20497;-66
2022/07/03 04:55:26;;;;;;;5.43;4.93;;;;;;;;;;5093334;28;20520;-65
2022/07/03 04:57:53;;;;;;;5.13;4.80;;;;;;;;;;5093049;28;20453;-66
2022/07/03 05:00:21;;;;;;;6.30;5.70;;;;;;;;;;5093101;28;20438;-65
2022/07/03 05:02:48;;;;;;;5.30;4.83;;;;;;;;;;5092681;28;20486;-65
2022/07/03 05:05:16;;;;;;;5.93;5.33;;;;;;;;;;5093393;28;20514;-66
2022/07/03 05:07:44;;;;;;;4.73;4.33;;;;;;;;;;5093688;28;20852;-65
2022/07/03 05:10:11;;;;;;;5.30;4.77;;;;;;;;;;5094157;28;20448;-65
2022/07/03 05:12:38;;;;;;;6.17;5.07;;;;;;;;;;5093199;28;20540;-65
2022/07/03 05:15:06;;;;;;;4.87;4.47;;;;;;;;;;5093398;28;20531;-65
2022/07/03 05:17:34;;;;;;;4.80;4.40;;;;;;;;;;5093037;28;20453;-65
2022/07/03 05:22:48;;;;;;;6.60;5.10;;;;;;;;;;5092760;28;20398;-65
2022/07/03 05:25:16;;;;;;;5.50;5.10;;;;;;;;;;5092785;28;20443;-65
2022/07/03 05:27:43;;;;;;;6.07;5.33;;;;;;;;;;5093671;28;20485;-65
2022/07/03 05:30:11;;;;;;;4.77;4.47;;;;;;;;;;5093423;28;20447;-65
2022/07/03 05:32:38;;;;;;;5.00;4.60;;;;;;;;;;5092951;28;20447;-65
2022/07/03 05:35:06;;;;;;;7.87;4.97;;;;;;;;;;5093096;28;20434;-66
2022/07/03 05:37:33;;;;;;;4.97;4.63;;;;;;;;;;5093324;28;20470;-65
2022/07/03 05:40:01;;;;;;;7.23;5.00;;;;;;;;;;5092493;28;20530;-65
2022/07/03 05:42:28;;;;;;;6.03;5.37;;;;;;;;;;5093034;28;20457;-65
2022/07/03 05:44:56;;;;;;;5.77;5.37;;;;;;;;;;5096364;28;20481;-65
2022/07/03 05:47:23;;;;;;;6.60;5.47;;;;;;;;;;5097091;28;20465;-65
2022/07/03 05:49:51;;;;;;;6.63;5.80;;;;;;;;;;5097188;28;20439;-65
2022/07/03 05:52:18;;;;;;;7.83;5.63;;;;;;;;;;5097183;28;20435;-66
2022/07/03 05:54:45;;;;;;;5.17;4.80;;;;;;;;;;5097094;28;20600;-65
2022/07/03 05:57:14;;;;;;;6.30;5.57;;;;;;;;;;5096595;28;20534;-66
2022/07/03 05:59:41;;;;;;;5.80;5.40;;;;;;;;;;5096736;28;20467;-65
2022/07/03 06:02:08;;;;;;;6.33;5.43;;;;;;;;;;5096242;28;20493;-65
2022/07/03 06:04:35;;;;;;;6.27;5.07;;;;;;;;;;5096247;28;20561;-66
2022/07/03 06:07:03;;;;;;;6.00;5.37;;;;;;;;;;5096386;28;20523;-66
2022/07/03 06:09:30;;;;;;;5.57;5.13;;;;;;;;;;5096436;28;20488;-66
2022/07/03 06:11:57;;;;;;;4.73;4.40;;;;;;;;;;5097026;28;20530;-68
2022/07/03 06:14:26;;;;;;;5.20;4.70;;;;;;;;;;5096553;28;20544;-68
2022/07/03 06:16:53;;;;;;;5.13;4.73;;;;;;;;;;5096612;28;20542;-68
2022/07/03 06:19:20;;;;;;;5.80;4.90;;;;;;;;;;5096360;28;20541;-75
2022/07/03 06:21:47;;;;;;;5.83;4.40;;;;;;;;;;5095791;28;20530;-64
2022/07/03 06:24:15;;;;;;;5.50;4.17;;;;;;;;;;5095801;28;20566;-65
2022/07/03 06:26:42;;;;;;;4.27;3.90;;;;;;;;;;5096008;28;20474;-65
2022/07/03 06:29:09;;;;;;;11.03;4.80;;;;;;;;;;5096322;28;20446;-65
2022/07/03 06:31:38;;;;;;;4.87;4.47;;;;;;;;;;5096205;28;20522;-66
2022/07/03 06:34:05;;;;;;;5.97;4.30;;;;;;;;;;5096014;28;20860;-65
2022/07/03 06:36:32;;;;;;;4.90;4.50;;;;;;;;;;5095816;28;20534;-65
2022/07/03 06:38:59;;;;;;;4.30;3.90;;;;;;;;;;5095737;28;20470;-65
2022/07/03 06:41:27;;;;;;;4.27;3.87;;;;;;;;;;5095565;28;20868;-65
2022/07/03 06:43:54;;;;;;;4.57;3.73;;;;;;;;;;5095085;28;20558;-65
2022/07/03 06:46:21;;;;;;;3.67;3.37;;;;;;;;;;5095638;28;20470;-65
2022/07/03 06:48:50;;;;;;;3.53;3.20;;;;;;;;;;5095589;28;20600;-66
2022/07/03 06:51:17;;;;;;;5.00;4.60;;;;;;;;;;5096274;28;20528;-65
2022/07/03 06:53:44;;;;;;;6.80;3.93;;;;;;;;;;5095552;28;20450;-65
2022/07/03 06:56:11;;;;;;;5.60;4.30;;;;;;;;;;5096098;28;20973;-65
2022/07/03 06:58:38;;;;;;;4.57;4.10;;;;;;;;;;5095366;28;20478;-69
2022/07/03 07:01:06;;;;;;;5.27;4.20;;;;;;;;;;5095304;28;20538;-65
2022/07/03 07:03:33;;;;;;;4.80;4.20;;;;;;;;;;5094729;28;20558;-65
2022/07/03 07:06:01;;;;;;;4.20;3.90;;;;;;;;;;5095552;28;20440;-65
2022/07/03 07:08:29;;;;;;;6.87;4.33;;;;;;;;;;5095609;28;20531;-65
2022/07/03 07:10:56;;;;;;;3.97;3.63;;;;;;;;;;5095372;28;20928;-66
2022/07/03 07:13:24;;;;;;;7.37;4.07;;;;;;;;;;5095605;28;20451;-66
2022/07/03 07:15:51;;;;;;;5.10;4.60;;;;;;;;;;5095878;28;20870;-66
2022/07/03 07:18:19;;;;;;;4.90;4.50;;;;;;;;;;5095125;28;20923;-66
2022/07/03 07:20:46;;;;;;;4.47;4.07;;;;;;;;;;5094588;28;20976;-66
2022/07/03 07:23:14;;;;;;;4.30;3.90;;;;;;;;;;5094494;28;20475;-65
2022/07/03 07:25:42;;;;;;;5.63;4.93;;;;;;;;;;5095133;28;20491;-65
2022/07/03 07:28:09;;;;;;;5.10;4.60;;;;;;;;;;5095257;28;20467;-65
2022/07/03 07:30:36;;;;;;;5.20;4.40;;;;;;;;;;5095058;28;20449;-66
2022/07/03 07:33:03;;;;;;;5.63;4.67;;;;;;;;;;5095225;28;20523;-65
2022/07/03 07:35:30;;;;;;;8.70;5.10;;;;;;;;;;5094776;28;20483;-65
2022/07/03 07:37:58;;;;;;;5.60;4.47;;;;;;;;;;5094774;28;20485;-65
2022/07/03 07:40:26;;;;;;;6.40;3.83;;;;;;;;;;5094767;28;20475;-65
2022/07/03 07:42:53;;;;;;;4.93;4.43;;;;;;;;;;5094779;28;20482;-66
2022/07/03 07:45:22;;;;;;;4.77;4.37;;;;;;;;;;5094874;28;20475;-65
2022/07/03 07:47:49;;;;;;;4.10;3.80;;;;;;;;;;5094661;28;20526;-66
2022/07/03 07:50:16;;;;;;;3.87;3.60;;;;;;;;;;5094855;28;20785;-66
2022/07/03 07:52:44;;;;;;;5.20;4.13;;;;;;;;;;5094523;28;20488;-66
2022/07/03 07:55:11;;;;;;;3.90;3.60;;;;;;;;;;5094661;28;20774;-66
2022/07/03 07:57:40;;;;;;;6.63;3.40;;;;;;;;;;5094425;28;20993;-67
2022/07/03 08:00:08;;;;;;;5.00;3.63;;;;;;;;;;5094603;28;20472;-67
2022/07/03 08:05:39;;;;;;;3.90;3.60;;;;;;;;;;5073194;28;20945;-67
2022/07/03 08:08:07;;;;;;;3.40;3.20;;;;;;;;;;5072926;28;20440;-67
2022/07/03 08:10:38;;;;;;;3.47;2.90;;;;;;;;;;5073793;28;20447;-67
2022/07/03 08:13:07;;;;;;;4.40;3.30;;;;;;;;;;5074164;28;20480;-67
2022/07/03 08:15:34;;;;;;;4.50;2.70;;;;;;;;;;5074103;28;20524;-68
2022/07/03 08:18:02;;;;;;;4.83;3.20;;;;;;;;;;5074049;28;20503;-67
2022/07/03 08:20:29;;;;;;;4.93;3.10;;;;;;;;;;5073829;28;20532;-67
2022/07/03 08:22:57;;;;;;;4.10;2.97;;;;;;;;;;5073833;28;21006;-67
2022/07/03 08:25:25;;;;;;;3.63;3.33;;;;;;;;;;5073360;28;20570;-67
2022/07/03 08:27:52;;;;;;;5.83;3.10;;;;;;;;;;5073081;28;20463;-67
2022/07/03 08:30:21;;;;;;;4.10;3.70;;;;;;;;;;5073307;28;20529;-68
2022/07/03 08:32:49;;;;;;;3.57;3.27;;;;;;;;;;5076013;28;20527;-68
2022/07/03 08:35:17;;;;;;;6.63;3.93;;;;;;;;;;5093555;28;20454;-67
2022/07/03 08:37:46;;;;;;;3.77;3.47;;;;;;;;;;5093578;28;20439;-67
2022/07/03 08:40:14;;;;;;;3.77;3.40;;;;;;;;;;5093583;28;20462;-67
2022/07/03 08:42:48;;;;;;;5.60;3.00;;;;;;;;;;5094256;28;20858;-66
2022/07/03 08:45:16;;;;;;;4.57;3.13;;;;;;;;;;5093441;28;20468;-67
2022/07/03 08:47:46;;;;;;;3.37;3.10;;;;;;;;;;5092996;28;20536;-66
2022/07/03 08:50:13;;;;;;;7.00;3.13;;;;;;;;;;5093515;28;20520;-66
2022/07/03 08:52:41;;;;;;;3.10;2.90;;;;;;;;;;5093574;28;20445;-66
2022/07/03 08:55:08;;;;;;;3.13;2.73;;;;;;;;;;5093851;28;20647;-67
2022/07/03 08:57:37;;;;;;;7.53;3.50;;;;;;;;;;5093711;28;20789;-66
2022/07/03 09:00:06;;;;;;;6.67;3.00;;;;;;;;;;5093961;28;20440;-66
2022/07/03 09:02:33;;;;;;;5.33;3.53;;;;;;;;;;5093388;28;20998;-67
2022/07/03 09:05:02;;;;;;;4.20;3.20;;;;;;;;;;5072959;28;21037;-67
2022/07/03 09:07:31;;;;;;;4.13;3.37;;;;;;;;;;5072951;28;20481;-67
2022/07/03 09:09:59;;;;;;;4.90;3.57;;;;;;;;;;5072780;28;20480;-67
2022/07/03 09:12:26;;;;;;;3.20;2.90;;;;;;;;;;5073425;28;20531;-67
2022/07/03 09:14:53;;;;;;;3.13;2.90;;;;;;;;;;5073251;28;20424;-67
2022/07/03 09:17:20;;;;;;;5.73;3.17;;;;;;;;;;5073530;28;20443;-67
2022/07/03 09:19:48;;;;;;;3.63;3.03;;;;;;;;;;5077152;28;20482;-67
2022/07/03 09:22:26;;;;;;;6.33;3.77;;;;;;;;;;5077912;28;20450;-67
2022/07/03 09:24:55;;;;;;;5.83;4.00;;;;;;;;;;5076616;28;20460;-67
2022/07/03 09:27:23;;;;;;;4.63;3.53;;;;;;;;;;5076460;28;20476;-67
2022/07/03 09:29:59;;;;;;;4.60;3.73;;;;;;;;;;5076539;28;20467;-67
2022/07/03 09:32:27;;;;;;;6.33;3.10;;;;;;;;;;5077457;28;20425;-67
2022/07/03 09:35:13;;;;;;;7.00;4.37;;;;;;;;;;5096692;28;20446;-67
2022/07/03 09:37:42;;;;;;;3.87;3.47;;;;;;;;;;5097088;28;20445;-68
2022/07/03 09:40:10;;;;;;;4.23;3.67;;;;;;;;;;5097584;28;20880;-67
2022/07/03 09:42:37;;;;;;;5.00;3.73;;;;;;;;;;5097514;28;20521;-67
2022/07/03 09:45:04;;;;;;;4.13;3.30;;;;;;;;;;5096377;28;20572;-67
2022/07/03 09:47:32;;;;;;;7.80;3.40;;;;;;;;;;5096496;28;20547;-67
2022/07/03 09:49:59;;;;;;;4.30;3.00;;;;;;;;;;5096349;28;20525;-67
2022/07/03 09:52:28;;;;;;;5.33;3.17;;;;;;;;;;5097469;28;20445;-67
2022/07/03 09:54:57;;;;;;;3.30;3.10;;;;;;;;;;5097146;28;20435;-67
2022/07/03 09:57:25;;;;;;;8.50;3.50;;;;;;;;;;5096691;28;20447;-66
2022/07/03 10:00:09;;;;;;;3.30;3.00;;;;;;;;;;5096677;28;20424;-67
2022/07/03 10:02:36;;;;;;;4.10;3.70;;;;;;;;;;5096458;28;20429;-67
2022/07/03 10:05:12;;;;;;;3.53;2.93;;;;;;;;;;5096466;28;20583;-67
2022/07/03 10:07:51;;;;;;;4.43;3.27;;;;;;;;;;5096477;28;20597;-67
2022/07/03 10:10:20;;;;;;;5.67;3.80;;;;;;;;;;5096429;28;20462;-67
2022/07/03 10:12:49;;;;;;;3.07;2.77;;;;;;;;;;5096704;28;20836;-67
2022/07/03 10:15:17;;;;;;;7.40;3.20;;;;;;;;;;5096380;28;20479;-67
2022/07/03 10:17:44;;;;;;;2.87;2.53;;;;;;;;;;5096632;28;20863;-68
2022/07/03 10:20:14;;;;;;;5.10;3.13;;;;;;;;;;5095726;28;20443;-67
2022/07/03 10:22:43;;;;;;;8.30;3.07;;;;;;;;;;5096366;28;20449;-67
2022/07/03 10:25:11;;;;;;;5.83;2.97;;;;;;;;;;5096033;28;20830;-67
2022/07/03 10:27:40;;;;;;;3.00;2.17;;;;;;;;;;5095913;28;20814;-67
2022/07/03 10:30:07;;;;;;;4.53;2.90;;;;;;;;;;5094380;28;21039;-67
2022/07/03 10:32:35;;;;;;;4.70;3.20;;;;;;;;;;5096376;28;20495;-67
2022/07/03 10:35:02;;;;;;;3.77;2.70;;;;;;;;;;5096066;28;20526;-67
2022/07/03 10:37:32;;;;;;;7.70;2.93;;;;;;;;;;5096175;28;20509;-67
2022/07/03 10:45:32;;;;;;;2.80;2.10;;;;;;;;;;5095417;28;20841;-68
2022/07/03 10:47:59;;;;;;;4.80;2.47;;;;;;;;;;5095205;28;20471;-67
2022/07/03 10:50:27;;;;;;;5.77;3.83;;;;;;;;;;5095190;28;20944;-67
2022/07/03 10:52:54;;;;;;;3.93;2.30;;;;;;;;;;5095646;28;20446;-67
2022/07/03 10:55:21;;;;;;;4.50;2.30;;;;;;;;;;5095617;28;20929;-67
2022/07/03 10:58:03;;;;;;;4.30;2.47;;;;;;;;;;5095849;28;20510;-67
2022/07/03 11:00:32;;;;;;;5.43;3.07;;;;;;;;;;5095238;28;20527;-67
2022/07/03 11:02:59;;;;;;;9.17;2.53;;;;;;;;;;5095714;28;20515;-66
2022/07/03 11:05:28;;;;;;;3.13;2.40;;;;;;;;;;5094946;28;21060;-67
2022/07/03 11:08:06;;;;;;;2.40;2.20;;;;;;;;;;5095088;28;20425;-67
2022/07/03 11:10:35;;;;;;;3.27;2.30;;;;;;;;;;5094755;28;20908;-67
2022/07/03 11:13:03;;;;;;;4.67;2.60;;;;;;;;;;5095492;28;20415;-66
2022/07/03 11:15:32;;;;;;;2.63;2.40;;;;;;;;;;5095181;28;20448;-67
2022/07/03 11:18:09;;;;;;;2.60;2.37;;;;;;;;;;5095290;28;20513;-67
2022/07/03 11:20:38;;;;;;;3.17;2.40;;;;;;;;;;5095076;28;20447;-66
2022/07/03 11:23:09;;;;;;;3.80;2.43;;;;;;;;;;5095564;28;20805;-67
2022/07/03 11:25:40;;;;;;;4.13;2.33;;;;;;;;;;5094925;28;20586;-66
2022/07/03 11:28:07;;;;;;;3.80;3.17;;;;;;;;;;5094800;28;20424;-67
2022/07/03 11:30:36;;;;;;;3.90;2.77;;;;;;;;;;5094488;28;20499;-66
2022/07/03 11:33:03;;;;;;;5.77;3.00;;;;;;;;;;5095295;28;20428;-66
2022/07/03 11:35:51;;;;;;;6.77;2.70;;;;;;;;;;5095244;28;20445;-66
2022/07/03 11:38:21;;;;;;;2.53;2.33;;;;;;;;;;5095143;28;20461;-67
2022/07/03 11:40:49;;;;;;;3.77;2.73;;;;;;;;;;5094700;28;20828;-66
2022/07/03 11:43:16;;;;;;;4.50;2.30;;;;;;;;;;5095612;28;20492;-67
2022/07/03 11:45:47;;;;;;;2.60;2.40;;;;;;;;;;5094324;28;20476;-66
2022/07/03 11:48:15;;;;;;;4.20;2.40;;;;;;;;;;5093825;28;20541;-66
2022/07/03 11:50:46;;;;;;;2.70;2.37;;;;;;;;;;5093888;28;20419;-67
2022/07/03 11:53:21;;;;;;;4.57;2.80;;;;;;;;;;5094620;28;20498;-67
2022/07/03 11:55:49;;;;;;;3.87;2.70;;;;;;;;;;5094595;28;20505;-67
2022/07/03 11:58:18;;;;;;;3.37;3.07;;;;;;;;;;5094253;28;20423;-67
2022/07/03 12:00:47;;;;;;;4.37;2.80;;;;;;;;;;5094197;28;20482;-67
2022/07/03 12:03:21;;;;;;;2.77;2.47;;;;;;;;;;5094054;28;20460;-67
2022/07/03 12:05:56;;;;;;;3.43;3.13;;;;;;;;;;5093692;28;20550;-67
2022/07/03 12:08:28;;;;;;;3.30;2.17;;;;;;;;;;5093769;28;20390;-67
2022/07/03 12:11:00;;;;;;;2.13;1.97;;;;;;;;;;5093949;28;20439;-67
2022/07/03 12:13:30;;;;;;;3.10;2.80;;;;;;;;;;5094664;28;20442;-68
2022/07/03 12:16:03;;;;;;;2.80;2.60;;;;;;;;;;5094225;28;20446;-66
2022/07/03 12:18:42;;;;;;;3.40;2.13;;;;;;;;;;5094574;28;20505;-66
2022/07/03 12:21:11;;;;;;;3.37;2.43;;;;;;;;;;5094480;28;20548;-66
2022/07/03 12:23:43;;;;;;;3.93;2.70;;;;;;;;;;5094072;28;20481;-67
2022/07/03 12:26:11;;;;;;;4.53;2.40;;;;;;;;;;5093380;28;20562;-67
2022/07/03 12:28:39;;;;;;;4.70;2.37;;;;;;;;;;5093526;28;20444;-65
2022/07/03 12:31:07;;;;;;;6.93;2.17;;;;;;;;;;5093301;28;20441;-66
2022/07/03 12:33:36;;;;;;;3.33;2.20;;;;;;;;;;5094355;28;20407;-68
2022/07/03 12:36:04;;;;;;;2.43;2.20;;;;;;;;;;5094081;28;20423;-66
2022/07/03 12:38:33;;;;;;;3.83;2.20;;;;;;;;;;5093861;28;20414;-66
2022/07/03 12:41:03;;;;;;;4.10;2.80;;;;;;;;;;5093825;28;20865;-65
2022/07/03 12:43:37;;;;;;;4.40;2.67;;;;;;;;;;5093396;28;20422;-65
2022/07/03 12:46:04;;;;;;;2.47;2.27;;;;;;;;;;5093318;28;20875;-65
